Terminal Aerodrome Forecast
Issued by NWS Sterling, VA

Current Version | Previous Version | Graphics & Text | Print | Product List | Glossary On
Versions: 1 2 3 4 5 6 7 8 9 10 11 12 13 14 15 16 17 18 19 20 21
000
FTUS41 KLWX 092320
TAFIAD
TAF
KIAD 092320Z 1000/1106 29012G20KT P6SM FEW050
     FM100300 29008KT P6SM FEW090
     FM101500 30012G17KT P6SM SCT250
     FM102200 31005KT P6SM FEW250=

USA.gov is the U.S. government's official web portal to all federal, state and local government web resources and services.